Latest Weather Observations for Mount Hotham AWS

IDV60801

Issued at 7:35 pm EDT Tuesday 21 October 2014 (issued every 30 minutes, with the page automatically refreshed every 10 minutes)

About weather observations | Map of weather stations | Latest weather observations for VIC | Other Formats
Station Details ID: 083085 Name: MOUNT HOTHAM Lat: -36.98 Lon: 147.13 Height: 1849.0 m
Data from the previous 72 hours. | See also: Recent months at Mount Hotham AWS
Date/Time
EDT
Temp
°C
App
Temp
°C
Dew
Point
Rel
Hum
%
Delta-T
°C
Wind Press
QNH
hPa
Press
MSL
hPa
Rain
since 9 am
mm
Dir
 
Spd
km/h
Gust
km/h
Spd
kts
Gust
kts
21/07:30pm 9.3 4.9 7.4 88 1.0 WNW 20 22 11 12 - - 0.0
21/07:00pm 10.3 6.6 7.9 85 1.3 NW 17 20 9 11 - - 0.0
21/06:30pm 11.3 7.0 8.0 80 1.8 W 20 24 11 13 - - 0.0
21/06:00pm 12.4 9.1 7.9 74 2.4 W 15 20 8 11 - - 0.0
21/05:30pm 12.7 8.9 7.6 71 2.8 W 17 22 9 12 - - 0.0
21/05:00pm 13.6 10.3 8.2 70 3.0 WNW 15 19 8 10 - - 0.0
21/04:30pm 13.1 9.8 8.0 71 2.8 W 15 20 8 11 - - 0.0
21/04:00pm 14.4 10.9 8.6 68 3.2 W 17 24 9 13 - - 0.0
21/03:30pm 13.4 9.6 7.4 67 3.2 W 17 24 9 13 - - 0.0
21/03:00pm 13.7 9.7 8.1 69 3.1 W 19 26 10 14 - - 0.0
21/02:30pm 13.2 9.3 7.2 67 3.2 W 17 28 9 15 - - 0.0
21/02:00pm 12.6 8.7 7.3 70 2.8 W 17 24 9 13 - - 0.0
21/01:30pm 12.9 9.1 7.6 70 2.9 WNW 17 22 9 12 - - 0.0
21/01:00pm 11.7 7.8 7.0 73 2.5 WNW 17 24 9 13 - - 0.0
21/12:30pm 11.9 8.1 7.6 75 2.3 W 17 22 9 12 - - 0.0
21/12:00pm 13.0 9.4 8.3 73 2.6 WNW 17 24 9 13 - - 0.0
21/11:30am 10.9 7.0 5.2 68 2.9 W 15 20 8 11 - - 0.0
21/11:00am 10.8 6.7 4.5 65 3.2 WNW 15 19 8 10 - - 0.0
21/10:30am 11.2 7.3 5.5 68 2.9 NNW 15 24 8 13 - - 0.0
21/10:00am 10.6 7.3 4.7 67 3.0 N 11 17 6 9 - - 0.0
21/09:30am 9.6 5.6 5.0 73 2.3 N 15 20 8 11 - - 0.0
21/09:00am 9.4 5.5 3.2 65 3.0 NNW 13 17 7 9 - - 0.0
21/08:30am 8.7 4.4 0.7 57 3.6 WNW 13 17 7 9 - - 0.0
21/08:00am 8.1 3.8 1.0 61 3.2 W 13 17 7 9 - - 0.0
21/07:30am 7.3 3.3 3.0 74 2.0 WNW 13 17 7 9 - - 0.0
21/07:00am 6.9 1.5 1.4 68 2.5 W 19 22 10 12 - - 0.0
21/06:30am 6.6 1.6 1.1 68 2.5 W 17 20 9 11 - - 0.0
21/06:00am 4.8 0.3 4.1 95 0.3 NW 17 19 9 10 - - 0.0
21/05:30am 5.9 1.1 4.5 91 0.7 W 19 20 10 11 - - 0.0
21/05:00am 5.9 1.0 4.2 89 0.8 WNW 19 22 10 12 - - 0.0
21/04:30am 6.3 1.5 4.6 89 0.8 WNW 19 20 10 11 - - 0.0
21/04:00am 6.3 1.9 4.5 88 0.9 WNW 17 20 9 11 - - 0.0
21/03:30am 6.5 2.1 4.7 88 0.9 WNW 17 19 9 10 - - 0.0
21/03:00am 6.8 2.4 4.8 87 1.0 WNW 17 20 9 11 - - 0.0
21/02:30am 6.3 1.5 4.9 91 0.7 NW 19 19 10 10 - - 0.0
21/02:00am 6.3 1.6 5.1 92 0.6 NW 19 20 10 11 - - 0.0
21/01:30am 6.6 2.0 5.6 93 0.5 NW 19 20 10 11 - - 0.0
21/01:00am 6.6 2.3 5.4 92 0.6 NW 17 19 9 10 - - 0.0
21/12:30am 6.0 2.7 4.6 91 0.7 NNW 11 13 6 7 - - 0.0
21/12:00am 10.3 5.8 -6.5 30 6.6 NNW 9 11 5 6 - - 0.0
 
Date/Time
EDT
Temp
°C
App
Temp
°C
Dew
Point
Rel
Hum
%
Delta-T
°C
Wind Press
QNH
hPa
Press
MSL
hPa
Rain
since 9 am
mm
Dir
 
Spd
km/h
Gust
km/h
Spd
kts
Gust
kts
20/11:30pm 9.1 6.8 -2.5 44 4.9 CALM 0 0 0 0 - - 0.0
20/11:00pm 8.7 6.4 5.8 82 1.5 NNW 7 9 4 5 - - 0.0
20/10:30pm 7.8 4.8 6.1 89 0.9 NNW 11 13 6 7 - - 0.0
20/10:00pm 7.1 3.9 5.3 88 0.9 NNW 11 13 6 7 - - 0.0
20/09:30pm 7.8 4.6 5.1 83 1.3 NNW 11 15 6 8 - - 0.0
20/09:00pm 8.1 4.7 5.7 85 1.2 N 13 17 7 9 - - 0.0
20/08:30pm 5.4 2.1 2.4 81 1.4 N 9 11 5 6 - - 0.0
20/08:00pm 3.6 0.0 3.0 96 0.3 NE 11 17 6 9 - - 0.0
20/07:30pm 4.4 -0.3 3.2 92 0.6 E 17 22 9 12 - - 0.0
20/07:00pm 5.5 0.5 3.8 89 0.8 E 19 24 10 13 - - 0.0
20/06:30pm 7.1 3.4 4.4 83 1.3 E 13 17 7 9 - - 0.0
20/06:00pm 8.7 4.7 5.1 78 1.8 E 15 19 8 10 - - 0.0
20/05:30pm 9.4 5.8 5.2 75 2.1 SSE 13 19 7 10 - - 0.0
20/05:00pm 10.5 7.6 6.3 75 2.2 SSE 11 13 6 7 - - 0.0
20/04:30pm 10.0 6.2 5.6 74 2.2 SSE 15 20 8 11 - - 0.0
20/04:00pm 10.9 8.0 6.5 74 2.3 SSE 11 20 6 11 - - 0.0
20/03:30pm 10.4 6.7 6.2 75 2.2 SSE 15 20 8 11 - - 0.0
20/03:00pm 11.2 9.0 6.3 72 2.6 SSE 7 13 4 7 - - 0.0
20/02:30pm 11.8 9.4 6.9 72 2.6 S 9 13 5 7 - - 0.0
20/02:00pm 13.1 9.2 1.1 44 5.7 W 11 20 6 11 - - 0.0
20/01:30pm 12.6 8.8 3.8 55 4.4 WSW 13 19 7 10 - - 0.0
20/01:00pm 12.1 8.3 4.1 58 4.0 W 13 20 7 11 - - 0.0
20/12:30pm 12.4 7.8 -0.8 40 6.0 WNW 13 20 7 11 - - 0.0
20/12:00pm 13.3 8.3 1.6 45 5.6 NNW 17 24 9 13 - - 0.0
20/11:30am 13.8 8.5 -3.5 30 7.5 NNW 15 19 8 10 - - 0.0
20/11:00am 11.6 8.7 4.8 63 3.4 NNE 9 15 5 8 - - 0.0
20/10:30am 11.9 8.1 3.7 57 4.1 N 13 19 7 10 - - 0.0
20/10:00am 11.7 7.4 1.1 48 5.0 NNW 13 19 7 10 - - 0.0
20/09:30am 11.5 6.3 -6.3 28 7.1 NW 13 19 7 10 - - 0.0
20/09:00am 11.5 7.1 0.3 46 5.2 W 13 17 7 9 - - 0.0
20/08:30am 10.4 6.1 1.2 53 4.3 W 13 17 7 9 - - 0.0
20/08:00am 9.9 5.3 1.8 57 3.8 W 15 17 8 9 - - 0.0
20/07:30am 9.6 5.2 0.5 53 4.1 W 13 17 7 9 - - 0.0
20/07:00am 8.8 4.1 0.8 57 3.6 W 15 19 8 10 - - 0.0
20/06:30am 8.5 4.2 1.0 59 3.4 W 13 26 7 14 - - 0.0
20/06:00am 6.6 2.3 0.7 66 2.6 W 13 17 7 9 - - 0.0
20/05:30am 7.8 2.8 1.2 63 3.0 W 17 20 9 11 - - 0.0
20/05:00am 7.1 3.8 2.2 71 2.3 W 9 17 5 9 - - 0.0
20/04:30am 5.3 1.7 3.0 85 1.1 WNW 11 19 6 10 - - 0.0
20/04:00am 3.1 0.3 3.0 99 0.0 NE 7 15 4 8 - - 0.0
20/03:30am 3.2 -0.8 3.1 99 0.0 E 13 15 7 8 - - 0.0
20/03:00am 3.3 0.4 2.6 95 0.3 NE 7 13 4 7 - - 0.0
20/02:55am 3.4 0.3 1.3 86 0.9 NNW 7 13 4 7 - - 0.0
20/02:30am 8.6 3.2 1.1 59 3.4 NW 19 24 10 13 - - 0.0
20/02:00am 8.9 3.5 1.1 58 3.6 NW 19 26 10 14 - - 0.0
20/01:30am 9.5 3.0 0.4 53 4.1 NW 24 35 13 19 - - 0.0
20/01:00am 9.7 1.7 0.3 52 4.3 NW 32 41 17 22 - - 0.0
20/12:30am 10.0 1.8 0.6 52 4.3 NW 33 46 18 25 - - 0.0
20/12:00am 10.2 2.0 0.3 50 4.5 NNW 33 43 18 23 - - 0.0
 
Date/Time
EDT
Temp
°C
App
Temp
°C
Dew
Point
Rel
Hum
%
Delta-T
°C
Wind Press
QNH
hPa
Press
MSL
hPa
Rain
since 9 am
mm
Dir
 
Spd
km/h
Gust
km/h
Spd
kts
Gust
kts
19/11:30pm 10.4 1.8 0.2 49 4.6 NW 35 46 19 25 - - 0.0
19/11:00pm 10.5 2.2 -0.3 47 4.9 NW 33 41 18 22 - - 0.0
19/10:30pm 10.4 1.8 -0.1 48 4.7 NW 35 48 19 26 - - 0.0
19/10:00pm 10.5 1.1 0.0 48 4.8 NW 39 52 21 28 - - 0.0
19/09:30pm 10.4 0.6 -0.1 48 4.7 NW 41 54 22 29 - - 0.0
19/09:13pm 10.5 0.8 0.3 49 4.7 NW 41 59 22 32 - - 0.0
19/09:00pm 10.2 0.9 0.8 52 4.3 NW 39 50 21 27 - - 0.0
19/08:47pm 10.4 1.1 0.7 51 4.5 NW 39 63 21 34 - - 0.0
19/08:30pm 9.7 1.7 1.4 56 3.9 NNW 33 44 18 24 - - 0.0
19/08:00pm 9.4 1.4 1.6 58 3.6 NNW 33 43 18 23 - - 0.0
19/07:30pm 8.9 1.5 1.8 61 3.3 NNW 30 39 16 21 - - 0.0
19/07:00pm 9.6 2.6 2.0 59 3.6 NW 28 39 15 21 - - 0.0
19/06:30pm 9.9 1.9 1.8 57 3.8 NW 33 44 18 24 - - 0.0
19/06:00pm 10.3 2.5 1.4 54 4.2 NW 32 46 17 25 - - 0.0
19/05:30pm 10.6 2.5 1.2 52 4.4 WNW 33 43 18 23 - - 0.0
19/05:00pm 11.0 2.6 1.3 51 4.5 NW 35 54 19 29 - - 0.0
19/04:59pm 11.0 2.5 1.0 50 4.7 NW 35 54 19 29 - - 0.0
19/04:30pm 10.8 1.9 0.5 49 4.7 NW 37 52 20 28 - - 0.0
19/04:25pm 10.7 2.2 1.0 51 4.5 NW 35 54 19 29 - - 0.0
19/04:00pm 11.4 2.3 1.6 51 4.6 NW 39 52 21 28 - - 0.0
19/03:30pm 10.6 1.3 0.9 51 4.5 NNW 39 56 21 30 - - 0.0
19/03:00pm 10.9 1.2 0.3 48 4.9 NW 41 54 22 29 - - 0.0
19/02:30pm 11.0 1.0 1.0 50 4.7 NNW 43 52 23 28 - - 0.0
19/02:00pm 9.3 -0.4 0.7 55 3.9 NW 41 54 22 29 - - 0.0
19/01:30pm 9.0 -0.7 0.2 54 4.0 NNW 41 54 22 29 - - 0.0
19/01:00pm 8.9 -0.5 -0.1 53 4.0 NNW 39 46 21 25 - - 0.0
19/12:30pm 8.6 -1.5 0.3 56 3.7 NW 43 54 23 29 - - 0.0
19/12:00pm 7.8 -2.2 0.8 61 3.2 NW 43 54 23 29 - - 0.0
19/11:30am 8.1 -1.7 0.1 57 3.6 NW 41 54 22 29 - - 0.0
19/11:00am 8.2 -2.4 0.7 59 3.4 NW 46 57 25 31 - - 0.0
19/10:30am 8.6 -1.8 -0.4 53 4.0 NW 44 56 24 30 - - 0.0
19/10:00am 8.2 -2.3 -1.1 52 4.0 NNW 44 59 24 32 - - 0.0
19/09:30am 8.0 -2.4 -1.5 51 4.1 NNW 43 52 23 28 - - 0.0
19/09:00am 8.3 -1.0 -2.0 48 4.4 NW 37 46 20 25 - - 0.0
19/08:30am 7.6 -1.3 -1.6 52 3.9 NNW 35 44 19 24 - - 0.0
19/08:00am 7.4 -0.9 -1.5 53 3.8 NW 32 39 17 21 - - 0.0
19/07:30am 7.0 -0.9 -1.4 55 3.6 NW 30 37 16 20 - - 0.0
19/07:00am 7.0 -0.2 -1.9 53 3.7 NW 26 35 14 19 - - 0.0
19/06:30am 7.7 0.2 -4.1 43 4.7 NW 26 33 14 18 - - 0.0
19/06:00am 8.1 0.1 -5.7 37 5.4 WNW 28 39 15 21 - - 0.0
19/05:31am 8.0 -0.3 -5.1 39 5.2 WNW 30 48 16 26 - - 0.0
19/05:30am 8.3 -0.4 -5.5 37 5.4 WNW 32 48 17 26 - - 0.0
19/05:00am 7.7 -1.0 -5.0 40 5.0 WNW 32 46 17 25 - - 0.0
19/04:30am 7.4 -1.7 -3.4 46 4.4 WNW 35 46 19 25 - - 0.0
19/04:00am 7.2 -1.7 -2.2 51 3.9 WNW 35 46 19 25 - - 0.0
19/03:30am 7.1 -1.4 -2.1 52 3.8 NW 33 44 18 24 - - 0.0
19/03:00am 6.9 -1.6 -1.7 54 3.6 NW 33 41 18 22 - - 0.0
19/02:30am 7.3 -1.7 -2.7 49 4.1 NW 35 46 19 25 - - 0.0
19/02:00am 6.8 -1.6 -2.1 53 3.7 NW 32 39 17 21 - - 0.0
19/01:30am 7.3 -1.1 -2.2 51 4.0 NW 32 39 17 21 - - 0.0
19/01:00am 6.9 -1.8 -3.1 49 4.1 NW 33 41 18 22 - - 0.0
19/12:30am 6.0 -2.5 -1.6 58 3.2 NW 33 39 18 21 - - 0.0
19/12:00am 5.7 -2.7 -0.8 63 2.8 NNW 33 41 18 22 - - 0.0
 
Date/Time
EDT
Temp
°C
App
Temp
°C
Dew
Point
Rel
Hum
%
Delta-T
°C
Wind Press
QNH
hPa
Press
MSL
hPa
Rain
since 9 am
mm
Dir
 
Spd
km/h
Gust
km/h
Spd
kts
Gust
kts
18/11:30pm 5.7 -2.0 2.2 78 1.6 NNW 32 37 17 20 - - 0.0
18/11:00pm 6.2 -0.9 1.1 70 2.3 NNW 28 33 15 18 - - 0.0
18/10:30pm 6.6 -0.1 3.4 80 1.5 NNW 28 33 15 18 - - 0.0
18/10:00pm 6.6 0.3 3.8 82 1.3 NW 26 30 14 16 - - 0.0
18/09:30pm 7.1 0.9 4.2 82 1.4 NW 26 32 14 17 - - 0.0
18/09:00pm 6.0 1.0 3.7 85 1.1 NNW 19 20 10 11 - - 0.0
18/08:30pm 6.2 1.5 3.4 82 1.3 NNW 17 19 9 10 - - 0.0
18/08:00pm 6.9 3.0 3.3 78 1.7 NNW 13 15 7 8 - - 0.0

Other Formats:

Comma delimited format used in spreadsheet applications
http://www.bom.gov.au/fwo/IDV60801/IDV60801.94906.axf

JavaScript Object Notation format (JSON) in row-major order
http://www.bom.gov.au/fwo/IDV60801/IDV60801.94906.json